Time;durP1;ratioP1;P1;durP2;ratioP2;P2;SDS_P1;SDS_P2;PMS_P1;PMS_P2;Temp;Humidity;BMP_temperature;BMP_pressure;BME280_temperature;BME280_humidity;BME280_pressure;Samples;Min_cycle;Max_cycle;Signal;HPM_P1;HPM_P2
2022/12/23 00:01:06;;;;;;;11.90;4.47;;;10.60;99.90;;;;;;5044624;28;20433;-43
2022/12/23 00:03:32;;;;;;;10.07;4.87;;;10.60;99.90;;;;;;5039170;28;20182;-43
2022/12/23 00:05:59;;;;;;;8.60;4.33;;;10.70;99.90;;;;;;5029920;28;20520;-43
2022/12/23 00:08:25;;;;;;;9.70;5.07;;;10.70;99.90;;;;;;5029801;28;20504;-43
2022/12/23 00:10:52;;;;;;;7.10;4.50;;;10.70;99.90;;;;;;5031010;28;20441;-43
2022/12/23 00:16:08;;;;;;;9.53;5.80;;;10.60;99.90;;;;;;5029057;28;20927;-42
2022/12/23 00:18:34;;;;;;;6.40;4.47;;;10.70;99.90;;;;;;5029487;28;20844;-43
2022/12/23 00:21:05;;;;;;;12.53;6.63;;;10.70;99.90;;;;;;5028859;28;20459;-42
2022/12/23 00:23:36;;;;;;;11.43;5.63;;;10.70;99.90;;;;;;5029158;28;20447;-43
2022/12/23 00:26:03;;;;;;;9.60;6.20;;;10.70;99.90;;;;;;5029573;28;20568;-43
2022/12/23 00:28:29;;;;;;;10.20;6.43;;;10.60;99.90;;;;;;5035777;28;20424;-42
2022/12/23 00:31:00;;;;;;;8.50;5.40;;;10.60;99.90;;;;;;5049084;28;20464;-42
2022/12/23 00:33:29;;;;;;;7.77;5.27;;;10.60;99.90;;;;;;5048075;28;20431;-44
2022/12/23 00:35:54;;;;;;;9.40;5.30;;;10.70;99.90;;;;;;5048971;28;20432;-44
2022/12/23 00:43:53;;;;;;;10.50;6.30;;;10.60;99.90;;;;;;5026560;28;20428;-43
2022/12/23 00:46:19;;;;;;;12.10;6.00;;;10.60;99.90;;;;;;5028561;28;20911;-44
2022/12/23 00:51:29;;;;;;;6.73;5.37;;;10.60;99.90;;;;;;5048988;28;20352;-42
2022/12/23 00:53:54;;;;;;;12.70;6.30;;;10.60;99.90;;;;;;5038641;28;20487;-43
2022/12/23 00:56:20;;;;;;;7.53;4.77;;;10.50;99.90;;;;;;5048259;28;20198;-42
2022/12/23 00:58:46;;;;;;;8.17;4.83;;;10.60;99.90;;;;;;5048425;28;20205;-43
2022/12/23 01:06:40;;;;;;;7.20;4.53;;;10.60;99.90;;;;;;5047762;28;20495;-42
2022/12/23 01:09:06;;;;;;;11.20;5.20;;;10.60;99.90;;;;;;5048162;28;20942;-41
2022/12/23 01:11:31;;;;;;;6.77;5.07;;;10.60;99.90;;;;;;5048362;28;20197;-43
2022/12/23 01:13:58;;;;;;;8.37;4.67;;;10.60;99.90;;;;;;5047576;28;20190;-41
2022/12/23 01:16:23;;;;;;;7.13;4.73;;;10.60;99.90;;;;;;5048250;28;20225;-43
2022/12/23 01:18:49;;;;;;;7.17;5.10;;;10.60;99.90;;;;;;5047910;28;21018;-42
2022/12/23 01:21:14;;;;;;;7.63;4.83;;;10.60;99.90;;;;;;5048204;28;20196;-42
2022/12/23 01:23:40;;;;;;;6.67;5.00;;;10.50;99.90;;;;;;5034499;28;20227;-43
2022/12/23 01:26:07;;;;;;;7.63;4.73;;;10.60;99.90;;;;;;5028495;28;20182;-43
2022/12/23 01:28:34;;;;;;;7.00;5.57;;;10.60;99.90;;;;;;5028280;28;20666;-43
2022/12/23 01:31:02;;;;;;;8.67;5.23;;;10.50;99.90;;;;;;5028159;28;20432;-41
2022/12/23 01:33:27;;;;;;;8.90;5.20;;;10.50;99.90;;;;;;5027699;28;20927;-43
2022/12/23 01:36:04;;;;;;;8.43;5.20;;;10.60;99.90;;;;;;5027872;28;20421;-42
2022/12/23 01:38:30;;;;;;;5.53;5.03;;;10.60;99.90;;;;;;5029587;28;20669;-40
2022/12/23 01:40:56;;;;;;;7.57;5.27;;;10.60;99.90;;;;;;5047894;28;20427;-42
2022/12/23 01:43:22;;;;;;;5.90;4.80;;;10.60;99.90;;;;;;5045383;28;20540;-42
2022/12/23 01:45:48;;;;;;;7.90;4.23;;;10.60;99.90;;;;;;5046198;28;20469;-43
2022/12/23 01:48:23;;;;;;;8.97;5.33;;;10.60;99.90;;;;;;5047985;28;20428;-43
2022/12/23 01:51:03;;;;;;;8.57;4.80;;;10.60;99.90;;;;;;5047823;28;20181;-43
2022/12/23 01:53:33;;;;;;;10.40;5.27;;;10.60;99.90;;;;;;5046849;28;20435;-42
2022/12/23 01:56:06;;;;;;;8.00;5.40;;;10.60;99.90;;;;;;5048215;28;20840;-43
2022/12/23 01:58:36;;;;;;;7.50;5.23;;;10.50;99.90;;;;;;5047477;28;20463;-42
2022/12/23 02:03:49;;;;;;;8.17;6.03;;;10.50;99.90;;;;;;5046672;28;20412;-43
2022/12/23 02:09:17;;;;;;;9.87;6.00;;;10.50;99.90;;;;;;5046034;28;20491;-42
2022/12/23 02:12:17;;;;;;;12.30;7.37;;;10.50;99.90;;;;;;5048206;28;20416;-43
2022/12/23 02:17:39;;;;;;;9.80;8.00;;;10.50;99.90;;;;;;5051685;28;20468;-40
2022/12/23 02:20:31;;;;;;;9.97;7.60;;;10.50;99.90;;;;;;5049620;28;20474;-42
2022/12/23 02:23:23;;;;;;;10.37;8.70;;;10.50;99.90;;;;;;5051412;28;20439;-41
2022/12/23 02:26:14;;;;;;;14.47;8.63;;;10.50;99.90;;;;;;5051000;28;20416;-42
2022/12/23 02:28:40;;;;;;;9.00;8.10;;;10.50;99.90;;;;;;5051442;28;20797;-42
2022/12/23 02:31:25;;;;;;;10.63;7.90;;;10.50;99.90;;;;;;5051087;28;20949;-36
2022/12/23 02:34:00;;;;;;;13.10;8.17;;;10.50;99.90;;;;;;5050710;28;20807;-43
2022/12/23 02:36:52;;;;;;;9.50;8.47;;;10.50;99.90;;;;;;5049811;28;20466;-42
2022/12/23 02:39:25;;;;;;;12.30;9.13;;;10.50;99.90;;;;;;5051134;28;20447;-42
2022/12/23 02:42:05;;;;;;;13.53;8.60;;;10.50;99.90;;;;;;5051345;28;20431;-39
2022/12/23 02:44:34;;;;;;;11.07;8.60;;;10.50;99.90;;;;;;5048617;28;20412;-43
2022/12/23 02:47:06;;;;;;;9.93;8.93;;;10.50;99.90;;;;;;5050604;28;20843;-42
2022/12/23 02:49:35;;;;;;;10.07;8.90;;;10.50;99.90;;;;;;5049609;28;20432;-39
2022/12/23 02:52:05;;;;;;;9.50;8.00;;;10.50;99.90;;;;;;5051044;28;20424;-43
2022/12/23 02:55:03;;;;;;;13.03;8.93;;;10.50;99.90;;;;;;5050073;28;20432;-40
2022/12/23 02:57:34;;;;;;;11.70;8.93;;;10.50;99.90;;;;;;5049528;28;20424;-41
2022/12/23 03:00:02;;;;;;;15.67;9.57;;;10.50;99.90;;;;;;5050668;28;20553;-42
2022/12/23 03:02:31;;;;;;;16.47;9.30;;;10.50;99.90;;;;;;5050987;28;20420;-43
2022/12/23 03:04:57;;;;;;;12.40;9.40;;;10.50;99.90;;;;;;5050177;28;20432;-42
2022/12/23 03:07:30;;;;;;;12.90;9.33;;;10.60;99.90;;;;;;5050455;28;20420;-40
2022/12/23 03:10:15;;;;;;;12.20;9.83;;;10.50;99.90;;;;;;5051115;28;20452;-41
2022/12/23 03:12:55;;;;;;;13.60;9.80;;;10.50;99.90;;;;;;5050551;28;20864;-42
2022/12/23 03:15:29;;;;;;;12.80;8.97;;;10.50;99.90;;;;;;5050635;28;20786;-41
2022/12/23 03:18:24;;;;;;;15.20;10.73;;;10.50;99.90;;;;;;5050087;28;20465;-41
2022/12/23 03:20:55;;;;;;;9.87;7.73;;;10.50;99.90;;;;;;5050373;28;20417;-40
2022/12/23 03:23:47;;;;;;;9.97;8.30;;;10.60;99.90;;;;;;5049627;28;20463;-42
2022/12/23 03:26:20;;;;;;;10.53;7.40;;;10.60;99.90;;;;;;5040890;28;20778;-43
2022/12/23 03:29:07;;;;;;;7.63;6.83;;;10.50;99.90;;;;;;5049697;28;20816;-40
2022/12/23 03:31:35;;;;;;;7.03;5.87;;;10.50;99.90;;;;;;5050310;28;20485;-41
2022/12/23 03:34:15;;;;;;;7.33;6.53;;;10.50;99.90;;;;;;5049554;28;20451;-43
2022/12/23 03:36:54;;;;;;;11.03;7.30;;;10.50;99.90;;;;;;5048721;28;20457;-39
2022/12/23 03:39:25;;;;;;;12.10;7.90;;;10.50;99.90;;;;;;5049864;28;20501;-41
2022/12/23 03:42:04;;;;;;;8.87;7.97;;;10.50;99.90;;;;;;5048480;28;20424;-41
2022/12/23 03:44:41;;;;;;;13.00;7.70;;;10.50;99.90;;;;;;5048132;28;20814;-43
2022/12/23 03:47:36;;;;;;;14.53;8.90;;;10.50;99.90;;;;;;5049742;28;20910;-42
2022/12/23 03:50:08;;;;;;;12.53;9.70;;;10.50;99.90;;;;;;5048675;28;20423;-42
2022/12/23 03:52:55;;;;;;;13.80;9.50;;;10.50;99.90;;;;;;5049789;28;20416;-41
2022/12/23 03:55:31;;;;;;;13.57;9.60;;;10.50;99.90;;;;;;5049786;28;20822;-43
2022/12/23 03:58:19;;;;;;;15.60;10.90;;;10.50;99.90;;;;;;5048979;28;20419;-42
2022/12/23 04:00:57;;;;;;;15.37;10.93;;;10.50;99.90;;;;;;5049780;28;20462;-42
2022/12/23 04:04:02;;;;;;;11.77;10.50;;;10.50;99.90;;;;;;5048667;28;20477;-43
2022/12/23 04:06:35;;;;;;;13.83;10.80;;;10.50;99.90;;;;;;5045681;28;20479;-40
2022/12/23 04:09:03;;;;;;;11.43;10.23;;;10.50;99.90;;;;;;5049272;28;20411;-43
2022/12/23 04:11:29;;;;;;;12.67;10.90;;;10.50;99.90;;;;;;5049634;28;20427;-43
2022/12/23 04:13:55;;;;;;;13.30;10.20;;;10.50;99.90;;;;;;5048537;28;20405;-42
2022/12/23 04:16:21;;;;;;;14.13;11.00;;;10.50;99.90;;;;;;5049497;28;20217;-40
2022/12/23 04:18:46;;;;;;;12.97;10.00;;;10.50;99.90;;;;;;5048572;28;20604;-41
2022/12/23 04:21:12;;;;;;;15.53;10.27;;;10.50;99.90;;;;;;5049780;28;20412;-39
2022/12/23 04:23:39;;;;;;;11.17;9.70;;;10.50;99.90;;;;;;5048880;28;20177;-41
2022/12/23 04:26:04;;;;;;;9.20;8.23;;;10.50;99.90;;;;;;5049058;28;20432;-39
2022/12/23 04:28:30;;;;;;;9.37;8.00;;;10.40;99.90;;;;;;5047809;28;20485;-38
2022/12/23 04:30:56;;;;;;;10.10;8.20;;;10.50;99.90;;;;;;5048786;28;20451;-39
2022/12/23 04:33:21;;;;;;;7.93;7.00;;;10.50;99.90;;;;;;5048229;28;20182;-42
2022/12/23 04:35:47;;;;;;;18.93;10.20;;;10.50;99.90;;;;;;5047370;28;20185;-42
2022/12/23 04:38:13;;;;;;;9.27;7.80;;;10.40;99.90;;;;;;5048623;28;20216;-42
2022/12/23 04:40:38;;;;;;;9.80;7.63;;;10.50;99.90;;;;;;5049492;28;20213;-42
2022/12/23 04:43:04;;;;;;;11.23;8.07;;;10.50;99.90;;;;;;5048098;28;20174;-42
2022/12/23 04:45:31;;;;;;;8.63;7.50;;;10.40;99.90;;;;;;5048417;28;20174;-41
2022/12/23 04:47:57;;;;;;;9.47;8.47;;;10.40;99.90;;;;;;5048271;28;20216;-43
2022/12/23 04:50:23;;;;;;;11.93;8.77;;;10.50;99.90;;;;;;5048919;28;20448;-42
2022/12/23 04:52:48;;;;;;;9.27;8.37;;;10.40;99.90;;;;;;5048436;28;20439;-41
2022/12/23 04:55:14;;;;;;;10.03;7.20;;;10.50;99.90;;;;;;5048155;28;20182;-41
2022/12/23 04:57:40;;;;;;;8.93;6.57;;;10.50;99.90;;;;;;5048780;28;20171;-42
2022/12/23 05:00:06;;;;;;;8.87;6.53;;;10.50;99.90;;;;;;5048216;28;20263;-38
2022/12/23 05:02:32;;;;;;;7.63;6.30;;;10.50;99.90;;;;;;5048884;28;20182;-42
2022/12/23 05:04:57;;;;;;;7.87;6.10;;;10.50;99.90;;;;;;5047653;28;20797;-40
2022/12/23 05:07:23;;;;;;;9.00;7.07;;;10.50;99.90;;;;;;5048509;28;20215;-42
2022/12/23 05:09:50;;;;;;;9.07;6.47;;;10.50;99.90;;;;;;5047941;28;20267;-42
2022/12/23 05:12:16;;;;;;;6.90;5.70;;;10.50;99.90;;;;;;5048790;28;20444;-42
2022/12/23 05:14:41;;;;;;;8.63;6.03;;;10.50;99.90;;;;;;5047821;28;20285;-42
2022/12/23 05:17:07;;;;;;;6.87;5.20;;;10.50;99.90;;;;;;5047919;28;20178;-41
2022/12/23 05:19:33;;;;;;;6.37;5.63;;;10.50;99.90;;;;;;5048342;28;20211;-38
2022/12/23 05:21:58;;;;;;;6.97;5.50;;;10.50;99.90;;;;;;5048084;28;20551;-40
2022/12/23 05:24:24;;;;;;;7.50;6.70;;;10.40;99.90;;;;;;5047895;28;20221;-37
2022/12/23 05:26:50;;;;;;;8.30;7.03;;;10.50;99.90;;;;;;5047996;28;20198;-42
2022/12/23 05:29:15;;;;;;;12.80;7.73;;;10.40;99.90;;;;;;5048621;28;20178;-42
2022/12/23 05:31:41;;;;;;;7.90;7.10;;;10.50;99.90;;;;;;5048002;28;20189;-41
2022/12/23 05:34:07;;;;;;;8.93;6.47;;;10.50;99.90;;;;;;5047326;28;20209;-37
2022/12/23 05:36:32;;;;;;;7.07;6.20;;;10.40;99.90;;;;;;5048301;28;20396;-41
2022/12/23 05:38:58;;;;;;;8.40;6.23;;;10.40;99.90;;;;;;5047698;28;20275;-36
2022/12/23 05:41:24;;;;;;;7.00;5.40;;;10.50;99.90;;;;;;5047947;28;20197;-39
2022/12/23 05:43:49;;;;;;;9.03;5.73;;;10.50;99.90;;;;;;5040259;28;20193;-41
2022/12/23 05:46:15;;;;;;;5.20;4.50;;;10.40;99.90;;;;;;5047581;28;20178;-42
2022/12/23 05:48:41;;;;;;;7.10;5.10;;;10.40;99.90;;;;;;5048051;28;20200;-40
2022/12/23 05:51:06;;;;;;;5.87;4.40;;;10.40;99.90;;;;;;5050033;28;20272;-40
2022/12/23 05:53:32;;;;;;;4.73;4.30;;;10.50;99.90;;;;;;5051171;28;20186;-40
2022/12/23 05:55:58;;;;;;;5.53;4.90;;;10.40;99.90;;;;;;5051372;28;20272;-41
2022/12/23 05:58:24;;;;;;;6.50;5.63;;;10.50;99.90;;;;;;5049687;28;20209;-41
2022/12/23 06:00:49;;;;;;;8.30;6.27;;;10.40;99.90;;;;;;5043389;28;20232;-40
2022/12/23 06:03:15;;;;;;;7.73;6.23;;;10.40;99.90;;;;;;5051497;28;20416;-42
2022/12/23 06:05:42;;;;;;;7.17;6.00;;;10.40;99.90;;;;;;5051937;28;20628;-41
2022/12/23 06:08:09;;;;;;;10.63;7.13;;;10.40;99.90;;;;;;5051438;28;20194;-41
2022/12/23 06:10:34;;;;;;;8.90;6.80;;;10.40;99.90;;;;;;5051951;28;20408;-43
2022/12/23 06:13:00;;;;;;;11.63;7.00;;;10.40;99.90;;;;;;5051137;28;20959;-41
2022/12/23 06:15:26;;;;;;;8.10;6.53;;;10.40;99.90;;;;;;5051514;28;20554;-42
2022/12/23 06:17:51;;;;;;;7.80;6.60;;;10.40;99.90;;;;;;5051533;28;20185;-43
2022/12/23 06:20:17;;;;;;;7.80;6.93;;;10.40;99.90;;;;;;5051921;28;20217;-41
2022/12/23 06:22:43;;;;;;;10.13;6.90;;;10.40;99.90;;;;;;5051504;28;20186;-43
2022/12/23 06:25:08;;;;;;;11.70;8.43;;;10.40;99.90;;;;;;5044887;28;20181;-42
2022/12/23 06:27:34;;;;;;;10.00;7.77;;;10.40;99.90;;;;;;5051312;28;20193;-41
2022/12/23 06:30:00;;;;;;;10.90;9.10;;;10.40;99.90;;;;;;5050968;28;20612;-42
2022/12/23 06:32:25;;;;;;;11.50;9.17;;;10.40;99.90;;;;;;5051403;28;20201;-42
2022/12/23 06:34:52;;;;;;;11.90;9.13;;;10.40;99.90;;;;;;5050599;28;20652;-41
2022/12/23 06:37:19;;;;;;;12.60;9.30;;;10.40;99.90;;;;;;5051413;28;20684;-42
2022/12/23 06:39:45;;;;;;;14.23;9.47;;;10.40;99.90;;;;;;5051287;28;20456;-42
2022/12/23 06:42:10;;;;;;;14.23;9.50;;;10.40;99.90;;;;;;5049576;28;20416;-40
2022/12/23 06:44:36;;;;;;;11.20;8.80;;;10.40;99.90;;;;;;5049395;28;20190;-42
2022/12/23 06:47:02;;;;;;;13.50;7.90;;;10.40;99.90;;;;;;5051058;28;20532;-41
2022/12/23 06:49:27;;;;;;;8.67;7.07;;;10.40;99.90;;;;;;5051269;28;20214;-42
2022/12/23 06:51:53;;;;;;;10.40;8.17;;;10.40;99.90;;;;;;5050772;28;20185;-41
2022/12/23 06:54:19;;;;;;;9.80;7.97;;;10.40;99.90;;;;;;5049058;28;20621;-41
2022/12/23 06:56:44;;;;;;;12.07;7.67;;;10.40;99.90;;;;;;5047991;28;20220;-39
2022/12/23 06:59:10;;;;;;;9.90;7.67;;;10.40;99.90;;;;;;5045551;28;20229;-37
2022/12/23 07:01:36;;;;;;;9.03;7.43;;;10.40;99.90;;;;;;5051095;28;20448;-40
2022/12/23 07:04:02;;;;;;;9.60;8.20;;;10.40;99.90;;;;;;5049492;28;20198;-41
2022/12/23 07:06:27;;;;;;;11.07;8.50;;;10.40;99.90;;;;;;5050897;28;20185;-41
2022/12/23 07:08:53;;;;;;;11.40;8.53;;;10.40;99.90;;;;;;5050493;28;20811;-41
2022/12/23 07:11:19;;;;;;;12.97;9.67;;;10.30;99.90;;;;;;5050263;28;20433;-41
2022/12/23 07:13:45;;;;;;;12.70;9.60;;;10.40;99.90;;;;;;5047730;28;20200;-42
2022/12/23 07:16:11;;;;;;;14.60;9.43;;;10.40;99.90;;;;;;5047922;28;20197;-40
2022/12/23 07:18:37;;;;;;;14.93;9.60;;;10.40;99.90;;;;;;5037182;28;20456;-42
2022/12/23 07:21:03;;;;;;;14.17;9.93;;;10.40;99.90;;;;;;5041746;28;20428;-39
2022/12/23 07:23:29;;;;;;;16.47;11.17;;;10.40;99.90;;;;;;5045972;28;20189;-41
2022/12/23 07:25:55;;;;;;;14.30;9.70;;;10.40;99.90;;;;;;5048684;28;20420;-41
2022/12/23 07:28:22;;;;;;;13.90;9.73;;;10.40;99.90;;;;;;5049079;28;20628;-37
2022/12/23 07:30:47;;;;;;;13.33;9.53;;;10.40;99.90;;;;;;5049990;28;20178;-41
2022/12/23 07:33:13;;;;;;;14.13;9.90;;;10.60;99.90;;;;;;5049384;28;20769;-41
2022/12/23 07:35:41;;;;;;;13.30;9.73;;;10.40;99.90;;;;;;5049896;28;20196;-39
2022/12/23 07:38:07;;;;;;;10.60;9.37;;;10.40;99.90;;;;;;5049154;28;20217;-42
2022/12/23 07:40:34;;;;;;;14.73;9.70;;;10.40;99.90;;;;;;5041772;28;20445;-43
2022/12/23 07:42:59;;;;;;;13.83;9.70;;;10.40;99.90;;;;;;5038818;28;20421;-40
2022/12/23 07:45:26;;;;;;;14.27;10.30;;;10.40;99.90;;;;;;5039272;28;20416;-41
2022/12/23 07:47:53;;;;;;;14.37;10.37;;;10.40;99.90;;;;;;5047347;28;20181;-39
2022/12/23 07:50:19;;;;;;;14.10;9.23;;;10.40;99.90;;;;;;5050002;28;20420;-43
2022/12/23 07:52:45;;;;;;;13.50;9.20;;;10.40;99.90;;;;;;5050005;28;20470;-42
2022/12/23 07:55:11;;;;;;;13.57;9.33;;;10.30;99.90;;;;;;5048906;28;20416;-42
2022/12/23 07:57:37;;;;;;;12.93;9.00;;;10.40;99.90;;;;;;5045097;28;20877;-36
2022/12/23 08:00:05;;;;;;;15.37;10.20;;;10.30;99.90;;;;;;5038297;28;20503;-41
2022/12/23 08:02:31;;;;;;;15.67;10.57;;;10.30;99.90;;;;;;5037689;28;20833;-40
2022/12/23 08:04:57;;;;;;;13.97;10.50;;;10.40;99.90;;;;;;5029597;28;20433;-39
2022/12/23 08:07:23;;;;;;;12.83;9.63;;;10.40;99.90;;;;;;5029875;28;20228;-43
2022/12/23 08:09:48;;;;;;;12.67;9.70;;;10.40;99.90;;;;;;5030128;28;20260;-43
2022/12/23 08:12:15;;;;;;;13.83;9.90;;;10.40;99.90;;;;;;5028629;28;20281;-42
2022/12/23 08:14:41;;;;;;;14.50;9.47;;;10.30;99.90;;;;;;5028953;28;20566;-41
2022/12/23 08:17:07;;;;;;;15.47;10.87;;;10.30;99.90;;;;;;5027634;28;20429;-40
2022/12/23 08:19:32;;;;;;;15.73;9.93;;;10.40;99.90;;;;;;5029670;28;20457;-42
2022/12/23 08:21:58;;;;;;;15.80;10.50;;;10.40;99.90;;;;;;5029073;28;20512;-40
2022/12/23 08:24:24;;;;;;;14.30;10.77;;;10.40;99.90;;;;;;5028812;28;20641;-39
2022/12/23 08:26:49;;;;;;;13.60;9.33;;;10.40;99.90;;;;;;5042471;28;20247;-42
2022/12/23 08:29:15;;;;;;;13.90;9.40;;;10.40;99.90;;;;;;5043178;28;20197;-40
2022/12/23 08:31:41;;;;;;;13.70;8.97;;;10.40;99.90;;;;;;5049402;28;20272;-40
2022/12/23 08:34:07;;;;;;;12.60;9.70;;;10.40;99.90;;;;;;5039389;28;20186;-40
2022/12/23 08:36:34;;;;;;;16.17;10.20;;;10.40;99.90;;;;;;5040269;28;20197;-41
2022/12/23 08:39:03;;;;;;;17.17;9.37;;;10.30;99.90;;;;;;5042604;28;20205;-40
2022/12/23 08:41:31;;;;;;;12.87;8.60;;;10.40;99.90;;;;;;5049304;28;20424;-42
2022/12/23 08:43:58;;;;;;;14.17;9.83;;;10.40;99.90;;;;;;5047769;28;20412;-41
2022/12/23 08:46:24;;;;;;;14.03;9.37;;;10.40;99.90;;;;;;5048571;28;20413;-40
2022/12/23 08:48:50;;;;;;;16.17;10.20;;;10.40;99.90;;;;;;5049032;28;20422;-41
2022/12/23 08:51:18;;;;;;;12.80;8.57;;;10.40;99.90;;;;;;5047649;28;20412;-39
2022/12/23 08:53:45;;;;;;;12.37;8.40;;;10.30;99.90;;;;;;5046711;28;20413;-42
2022/12/23 08:56:17;;;;;;;11.87;9.17;;;10.40;99.90;;;;;;5048484;28;20419;-41
2022/12/23 08:58:45;;;;;;;14.70;8.20;;;10.40;99.90;;;;;;5048869;28;20814;-41
2022/12/23 09:01:13;;;;;;;12.00;8.30;;;10.40;99.90;;;;;;5048748;28;20938;-41
2022/12/23 09:03:39;;;;;;;12.30;8.73;;;10.40;99.90;;;;;;5047637;28;20780;-38
2022/12/23 09:06:08;;;;;;;11.40;7.53;;;10.40;99.90;;;;;;5048500;28;20429;-39
2022/12/23 09:08:34;;;;;;;12.87;7.90;;;10.40;99.90;;;;;;5048127;28;20404;-37
2022/12/23 09:11:00;;;;;;;11.80;8.30;;;10.40;99.90;;;;;;5049064;28;20780;-39
2022/12/23 09:13:26;;;;;;;14.47;8.50;;;10.40;99.90;;;;;;5047171;28;20418;-41
2022/12/23 09:15:51;;;;;;;11.47;8.37;;;10.40;99.90;;;;;;5048627;28;20188;-42
2022/12/23 09:18:17;;;;;;;16.57;9.80;;;10.40;99.90;;;;;;5048230;28;20186;-44
2022/12/23 09:20:43;;;;;;;13.00;9.23;;;10.40;99.90;;;;;;5048560;28;20628;-42
2022/12/23 09:23:09;;;;;;;13.80;8.43;;;10.40;99.90;;;;;;5047838;28;20189;-41
2022/12/23 09:25:35;;;;;;;15.70;9.17;;;10.40;99.90;;;;;;5046149;28;20178;-40
2022/12/23 09:28:01;;;;;;;13.17;9.73;;;10.40;99.90;;;;;;5048429;28;21016;-42
2022/12/23 09:30:27;;;;;;;15.23;8.97;;;10.40;99.90;;;;;;5048176;28;20923;-41
2022/12/23 09:32:53;;;;;;;14.13;9.80;;;10.40;99.90;;;;;;5048221;28;20827;-40
2022/12/23 09:35:19;;;;;;;10.57;8.93;;;10.40;99.90;;;;;;5047581;28;20852;-41
2022/12/23 09:37:45;;;;;;;15.50;10.03;;;10.40;99.90;;;;;;5047842;28;20470;-38
2022/12/23 09:40:13;;;;;;;15.50;10.03;;;10.40;99.90;;;;;;5048399;28;20217;-41
2022/12/23 09:43:00;;;;;;;13.73;9.00;;;10.40;99.90;;;;;;5047766;28;20170;-42
2022/12/23 09:45:47;;;;;;;12.50;9.03;;;10.40;99.90;;;;;;5046184;28;20917;-40
2022/12/23 09:48:24;;;;;;;16.20;9.87;;;10.40;99.90;;;;;;5047650;28;20415;-41
2022/12/23 09:50:50;;;;;;;11.97;9.80;;;10.40;99.90;;;;;;5046986;28;21037;-40
2022/12/23 09:53:26;;;;;;;19.53;10.20;;;10.50;99.90;;;;;;5046860;28;20419;-39
2022/12/23 09:55:59;;;;;;;15.17;9.93;;;10.50;99.90;;;;;;5048263;28;20396;-40
2022/12/23 09:58:46;;;;;;;15.00;11.40;;;10.50;99.90;;;;;;5047724;28;20501;-41
2022/12/23 10:01:35;;;;;;;16.60;10.00;;;10.40;99.90;;;;;;5048449;28;20411;-39
2022/12/23 10:04:21;;;;;;;15.60;10.33;;;10.50;99.90;;;;;;5046947;28;20476;-39
2022/12/23 10:07:13;;;;;;;12.57;9.83;;;10.50;99.90;;;;;;5048101;28;20412;-43
2022/12/23 10:09:46;;;;;;;14.17;9.50;;;10.50;99.90;;;;;;5047091;28;20790;-41
2022/12/23 10:12:21;;;;;;;15.80;11.33;;;10.50;99.90;;;;;;5048159;28;20451;-40
2022/12/23 10:14:49;;;;;;;15.23;11.07;;;10.50;99.90;;;;;;5047689;28;20408;-41
2022/12/23 10:17:25;;;;;;;17.90;11.37;;;10.50;99.90;;;;;;5047911;28;20416;-40
2022/12/23 10:19:53;;;;;;;13.53;10.70;;;10.50;99.90;;;;;;5047893;28;20598;-43
2022/12/23 10:22:43;;;;;;;15.37;10.80;;;10.50;99.90;;;;;;5047613;28;20457;-39
2022/12/23 10:25:24;;;;;;;12.70;10.20;;;10.50;99.90;;;;;;5047270;28;20513;-40
2022/12/23 10:27:50;;;;;;;15.40;10.37;;;10.50;99.90;;;;;;5047677;28;20423;-40
2022/12/23 10:30:19;;;;;;;13.33;9.83;;;10.50;99.90;;;;;;5047890;28;20420;-38
2022/12/23 10:33:00;;;;;;;12.37;9.20;;;10.50;99.90;;;;;;5047585;28;20173;-41
2022/12/23 10:35:41;;;;;;;13.53;8.93;;;10.50;99.90;;;;;;5046205;28;20431;-43
2022/12/23 10:38:40;;;;;;;14.23;9.97;;;10.50;99.90;;;;;;5051409;28;21203;-40
2022/12/23 10:41:23;;;;;;;12.30;8.43;;;10.50;99.90;;;;;;5051355;28;20439;-38
2022/12/23 10:44:18;;;;;;;12.97;10.23;;;10.50;99.90;;;;;;5049461;28;20457;-41
2022/12/23 10:47:03;;;;;;;10.87;9.20;;;10.50;99.90;;;;;;5050926;28;20968;-42
2022/12/23 10:49:47;;;;;;;12.87;9.53;;;10.50;99.90;;;;;;5050987;28;20792;-39
2022/12/23 10:52:20;;;;;;;12.63;9.70;;;10.50;99.90;;;;;;5051225;28;20407;-40
2022/12/23 10:54:46;;;;;;;11.03;9.63;;;10.60;99.90;;;;;;5050377;28;20423;-42
2022/12/23 10:57:15;;;;;;;10.53;8.17;;;10.60;99.90;;;;;;5051093;28;21016;-40
2022/12/23 10:59:41;;;;;;;11.87;9.10;;;10.60;99.90;;;;;;5051259;28;20454;-39
2022/12/23 11:02:12;;;;;;;15.03;10.33;;;10.50;99.90;;;;;;5050839;28;20914;-40
2022/12/23 11:04:42;;;;;;;16.23;8.93;;;10.60;99.90;;;;;;5050218;28;20748;-41
2022/12/23 11:07:12;;;;;;;14.07;9.37;;;10.60;99.90;;;;;;5050139;28;20408;-41
2022/12/23 11:10:11;;;;;;;10.50;8.87;;;10.60;99.90;;;;;;5050957;28;20427;-39
2022/12/23 11:12:42;;;;;;;10.27;8.90;;;10.60;99.90;;;;;;5050486;28;20423;-40
2022/12/23 11:15:28;;;;;;;14.27;9.30;;;10.60;99.90;;;;;;5050717;28;20538;-42
2022/12/23 11:18:04;;;;;;;13.30;9.00;;;10.60;99.90;;;;;;5042261;28;20412;-40
2022/12/23 11:20:31;;;;;;;12.77;8.97;;;10.60;99.90;;;;;;5050074;28;20530;-41
2022/12/23 11:23:00;;;;;;;12.67;8.80;;;10.60;99.90;;;;;;5049245;28;20405;-42
2022/12/23 11:25:29;;;;;;;14.40;9.00;;;10.60;99.90;;;;;;5049719;28;20405;-38
2022/12/23 11:28:06;;;;;;;13.20;8.20;;;10.60;99.90;;;;;;5049571;28;20927;-42
2022/12/23 11:30:47;;;;;;;10.37;8.70;;;10.60;99.90;;;;;;5049740;28;20495;-41
2022/12/23 11:33:23;;;;;;;10.30;7.80;;;10.60;99.90;;;;;;5047788;28;20413;-41
2022/12/23 11:36:00;;;;;;;11.40;7.70;;;10.60;99.90;;;;;;5050048;28;20778;-41
2022/12/23 11:38:26;;;;;;;9.90;8.63;;;10.60;99.90;;;;;;5049829;28;20782;-38
2022/12/23 11:40:52;;;;;;;13.87;9.23;;;10.60;99.90;;;;;;5049887;28;20427;-40
2022/12/23 11:43:19;;;;;;;10.37;7.90;;;10.60;99.90;;;;;;5049570;28;20178;-43
2022/12/23 11:45:45;;;;;;;9.90;8.20;;;10.60;99.90;;;;;;5049305;28;20830;-41
2022/12/23 11:48:28;;;;;;;12.00;9.33;;;10.60;99.90;;;;;;5048997;28;20413;-42
2022/12/23 11:51:02;;;;;;;9.23;7.57;;;10.60;99.90;;;;;;5050420;28;20289;-42
2022/12/23 11:53:28;;;;;;;11.83;8.93;;;10.60;99.90;;;;;;5048716;28;20420;-42
2022/12/23 11:56:06;;;;;;;11.10;8.53;;;10.60;99.90;;;;;;5050227;28;20425;-40
2022/12/23 11:58:53;;;;;;;10.70;8.50;;;10.60;99.90;;;;;;5047903;28;20998;-42
2022/12/23 12:01:22;;;;;;;9.93;8.43;;;10.60;99.90;;;;;;5049740;28;20821;-38
2022/12/23 12:04:05;;;;;;;13.10;8.67;;;10.60;99.90;;;;;;5048718;28;20412;-42
2022/12/23 12:06:32;;;;;;;10.83;9.10;;;10.60;99.90;;;;;;5049373;28;20503;-41
2022/12/23 12:09:00;;;;;;;10.07;8.47;;;10.60;99.90;;;;;;5049183;28;20412;-41
2022/12/23 12:11:30;;;;;;;11.30;9.60;;;10.60;99.90;;;;;;5048465;28;20474;-42
2022/12/23 12:14:07;;;;;;;11.87;8.97;;;10.60;99.90;;;;;;5048631;28;20424;-40
2022/12/23 12:16:48;;;;;;;11.10;8.60;;;10.60;99.90;;;;;;5049826;28;20420;-40
2022/12/23 12:19:22;;;;;;;11.13;8.87;;;10.60;99.90;;;;;;5049604;28;20459;-38
2022/12/23 12:21:50;;;;;;;12.43;9.50;;;10.60;99.90;;;;;;5049734;28;20415;-41
2022/12/23 12:24:21;;;;;;;11.77;9.10;;;10.60;99.90;;;;;;5048648;28;20934;-40
2022/12/23 12:26:51;;;;;;;8.20;7.40;;;10.60;99.90;;;;;;5049215;28;20495;-42
2022/12/23 12:29:35;;;;;;;13.70;7.77;;;10.60;99.90;;;;;;5049463;28;20536;-41
2022/12/23 12:32:02;;;;;;;7.70;6.90;;;10.60;99.90;;;;;;5048951;28;20412;-40
2022/12/23 12:34:57;;;;;;;9.13;7.00;;;10.50;99.90;;;;;;5048771;28;20770;-40
2022/12/23 12:37:36;;;;;;;7.20;6.50;;;10.50;99.90;;;;;;5048966;28;20405;-42
2022/12/23 12:40:11;;;;;;;7.67;6.90;;;10.50;99.90;;;;;;5049387;28;20465;-41
2022/12/23 12:42:41;;;;;;;10.17;7.20;;;10.40;99.90;;;;;;5048728;28;20436;-42
2022/12/23 12:45:21;;;;;;;7.10;6.23;;;10.40;99.90;;;;;;5046825;28;20982;-41
2022/12/23 12:47:55;;;;;;;11.93;7.77;;;10.40;99.90;;;;;;5048925;28;20412;-40
2022/12/23 12:50:26;;;;;;;9.53;7.13;;;10.30;99.90;;;;;;5048852;28;20409;-42
2022/12/23 12:52:55;;;;;;;9.03;6.97;;;10.40;99.90;;;;;;5048887;28;20466;-41
2022/12/23 12:55:23;;;;;;;6.67;5.97;;;10.40;99.90;;;;;;5048170;28;20497;-38
2022/12/23 12:57:49;;;;;;;10.97;7.47;;;10.40;99.90;;;;;;5048781;28;20924;-38
2022/12/23 13:00:21;;;;;;;9.73;7.00;;;10.40;99.90;;;;;;5048188;28;20553;-41
2022/12/23 13:03:19;;;;;;;8.30;6.77;;;10.40;99.90;;;;;;5048749;28;20383;-42
2022/12/23 13:05:58;;;;;;;8.53;6.90;;;10.40;99.90;;;;;;5038276;28;20854;-40
2022/12/23 13:08:31;;;;;;;7.60;6.80;;;10.40;99.90;;;;;;5048640;28;20415;-41
2022/12/23 13:11:35;;;;;;;9.83;6.53;;;10.40;99.90;;;;;;5048352;28;20412;-38
2022/12/23 13:14:28;;;;;;;6.50;5.90;;;10.40;99.90;;;;;;5047914;28;20400;-42
2022/12/23 13:17:26;;;;;;;7.00;6.30;;;10.40;99.90;;;;;;5048416;28;20412;-40
2022/12/23 13:19:59;;;;;;;5.90;5.27;;;10.40;99.90;;;;;;5046610;28;20452;-42
2022/12/23 13:22:32;;;;;;;6.00;5.03;;;10.40;99.90;;;;;;5047981;28;20405;-41